sensor_id;sensor_type;location;lat;lon;timestamp;P1;durP1;ratioP1;P2;durP2;ratioP2
61903;SDS011;47857;52.270;6.804;2023-07-13T00:01:30;8.23;;;1.80;;
61903;SDS011;47857;52.270;6.804;2023-07-13T00:03:56;8.88;;;2.17;;
61903;SDS011;47857;52.270;6.804;2023-07-13T00:06:22;9.38;;;1.90;;
61903;SDS011;47857;52.270;6.804;2023-07-13T00:08:48;5.40;;;1.70;;
61903;SDS011;47857;52.270;6.804;2023-07-13T00:11:14;8.07;;;1.77;;
61903;SDS011;47857;52.270;6.804;2023-07-13T00:13:41;7.38;;;1.73;;
61903;SDS011;47857;52.270;6.804;2023-07-13T00:16:08;10.07;;;1.63;;
61903;SDS011;47857;52.270;6.804;2023-07-13T00:18:35;6.85;;;1.50;;
61903;SDS011;47857;52.270;6.804;2023-07-13T00:21:00;10.75;;;2.08;;
61903;SDS011;47857;52.270;6.804;2023-07-13T00:23:37;8.90;;;2.03;;
61903;SDS011;47857;52.270;6.804;2023-07-13T00:26:05;8.25;;;1.42;;
61903;SDS011;47857;52.270;6.804;2023-07-13T00:28:32;8.05;;;1.70;;
61903;SDS011;47857;52.270;6.804;2023-07-13T00:30:58;11.40;;;1.85;;
61903;SDS011;47857;52.270;6.804;2023-07-13T00:33:23;9.15;;;1.58;;
61903;SDS011;47857;52.270;6.804;2023-07-13T00:35:49;10.07;;;1.80;;
61903;SDS011;47857;52.270;6.804;2023-07-13T00:38:15;9.88;;;1.67;;
61903;SDS011;47857;52.270;6.804;2023-07-13T00:40:41;11.13;;;2.00;;
61903;SDS011;47857;52.270;6.804;2023-07-13T00:43:11;6.72;;;1.73;;
61903;SDS011;47857;52.270;6.804;2023-07-13T00:48:08;10.50;;;1.95;;
61903;SDS011;47857;52.270;6.804;2023-07-13T00:50:37;9.38;;;2.30;;
61903;SDS011;47857;52.270;6.804;2023-07-13T00:53:03;10.15;;;2.00;;
61903;SDS011;47857;52.270;6.804;2023-07-13T00:55:29;10.93;;;2.10;;
61903;SDS011;47857;52.270;6.804;2023-07-13T00:57:55;8.27;;;2.10;;
61903;SDS011;47857;52.270;6.804;2023-07-13T01:00:20;8.48;;;1.92;;
61903;SDS011;47857;52.270;6.804;2023-07-13T01:02:47;11.05;;;2.70;;
61903;SDS011;47857;52.270;6.804;2023-07-13T01:05:14;10.05;;;2.60;;
61903;SDS011;47857;52.270;6.804;2023-07-13T01:07:43;15.00;;;3.22;;
61903;SDS011;47857;52.270;6.804;2023-07-13T01:10:10;15.07;;;2.88;;
61903;SDS011;47857;52.270;6.804;2023-07-13T01:12:36;11.40;;;2.80;;
61903;SDS011;47857;52.270;6.804;2023-07-13T01:15:02;11.40;;;2.83;;
61903;SDS011;47857;52.270;6.804;2023-07-13T01:17:29;11.23;;;2.95;;
61903;SDS011;47857;52.270;6.804;2023-07-13T01:19:58;13.75;;;2.42;;
61903;SDS011;47857;52.270;6.804;2023-07-13T01:22:24;9.32;;;2.67;;
61903;SDS011;47857;52.270;6.804;2023-07-13T01:24:51;8.93;;;2.40;;
61903;SDS011;47857;52.270;6.804;2023-07-13T01:27:22;9.73;;;2.47;;
61903;SDS011;47857;52.270;6.804;2023-07-13T01:29:50;8.35;;;2.22;;
61903;SDS011;47857;52.270;6.804;2023-07-13T01:32:19;9.38;;;2.30;;
61903;SDS011;47857;52.270;6.804;2023-07-13T01:34:48;11.20;;;2.50;;
61903;SDS011;47857;52.270;6.804;2023-07-13T01:37:14;10.90;;;2.53;;
61903;SDS011;47857;52.270;6.804;2023-07-13T01:39:40;8.95;;;2.40;;
61903;SDS011;47857;52.270;6.804;2023-07-13T01:42:05;11.57;;;2.63;;
61903;SDS011;47857;52.270;6.804;2023-07-13T01:44:31;13.02;;;2.78;;
61903;SDS011;47857;52.270;6.804;2023-07-13T01:46:57;9.00;;;2.08;;
61903;SDS011;47857;52.270;6.804;2023-07-13T01:49:23;10.45;;;2.60;;
61903;SDS011;47857;52.270;6.804;2023-07-13T01:51:48;7.78;;;2.40;;
61903;SDS011;47857;52.270;6.804;2023-07-13T01:54:14;10.60;;;2.10;;
61903;SDS011;47857;52.270;6.804;2023-07-13T01:56:39;10.35;;;2.33;;
61903;SDS011;47857;52.270;6.804;2023-07-13T01:59:07;8.18;;;2.10;;
61903;SDS011;47857;52.270;6.804;2023-07-13T02:01:33;10.45;;;2.40;;
61903;SDS011;47857;52.270;6.804;2023-07-13T02:03:58;8.05;;;2.13;;
61903;SDS011;47857;52.270;6.804;2023-07-13T02:06:26;11.48;;;2.33;;
61903;SDS011;47857;52.270;6.804;2023-07-13T02:08:52;11.82;;;2.53;;
61903;SDS011;47857;52.270;6.804;2023-07-13T02:11:18;11.82;;;2.60;;
61903;SDS011;47857;52.270;6.804;2023-07-13T02:13:44;7.40;;;2.17;;
61903;SDS011;47857;52.270;6.804;2023-07-13T02:16:09;11.10;;;2.60;;
61903;SDS011;47857;52.270;6.804;2023-07-13T02:18:35;10.02;;;2.30;;
61903;SDS011;47857;52.270;6.804;2023-07-13T02:21:00;12.38;;;2.22;;
61903;SDS011;47857;52.270;6.804;2023-07-13T02:23:27;8.80;;;2.50;;
61903;SDS011;47857;52.270;6.804;2023-07-13T02:25:56;7.35;;;1.80;;
61903;SDS011;47857;52.270;6.804;2023-07-13T02:28:23;11.43;;;2.90;;
61903;SDS011;47857;52.270;6.804;2023-07-13T02:30:48;7.20;;;2.10;;
61903;SDS011;47857;52.270;6.804;2023-07-13T02:33:14;8.32;;;2.33;;
61903;SDS011;47857;52.270;6.804;2023-07-13T02:35:39;8.35;;;2.50;;
61903;SDS011;47857;52.270;6.804;2023-07-13T02:38:05;6.70;;;2.50;;
61903;SDS011;47857;52.270;6.804;2023-07-13T02:40:31;7.18;;;1.98;;
61903;SDS011;47857;52.270;6.804;2023-07-13T02:43:01;9.88;;;2.28;;
61903;SDS011;47857;52.270;6.804;2023-07-13T02:45:30;9.25;;;2.00;;
61903;SDS011;47857;52.270;6.804;2023-07-13T02:47:56;11.10;;;2.30;;
61903;SDS011;47857;52.270;6.804;2023-07-13T02:50:21;7.95;;;2.00;;
61903;SDS011;47857;52.270;6.804;2023-07-13T02:52:47;8.27;;;2.13;;
61903;SDS011;47857;52.270;6.804;2023-07-13T02:55:13;8.48;;;1.88;;
61903;SDS011;47857;52.270;6.804;2023-07-13T02:57:38;10.20;;;2.25;;
61903;SDS011;47857;52.270;6.804;2023-07-13T03:00:04;8.43;;;1.98;;
61903;SDS011;47857;52.270;6.804;2023-07-13T03:02:31;8.38;;;2.15;;
61903;SDS011;47857;52.270;6.804;2023-07-13T03:04:57;9.35;;;2.20;;
61903;SDS011;47857;52.270;6.804;2023-07-13T03:07:23;11.20;;;2.38;;
61903;SDS011;47857;52.270;6.804;2023-07-13T03:09:55;8.40;;;2.10;;
61903;SDS011;47857;52.270;6.804;2023-07-13T03:12:23;7.45;;;2.10;;
61903;SDS011;47857;52.270;6.804;2023-07-13T03:14:49;7.85;;;2.05;;
61903;SDS011;47857;52.270;6.804;2023-07-13T03:17:15;6.93;;;1.58;;
61903;SDS011;47857;52.270;6.804;2023-07-13T03:19:41;8.55;;;2.13;;
61903;SDS011;47857;52.270;6.804;2023-07-13T03:22:08;8.27;;;2.28;;
61903;SDS011;47857;52.270;6.804;2023-07-13T03:24:34;8.40;;;2.10;;
61903;SDS011;47857;52.270;6.804;2023-07-13T03:27:01;6.25;;;2.20;;
61903;SDS011;47857;52.270;6.804;2023-07-13T03:29:31;10.57;;;2.28;;
61903;SDS011;47857;52.270;6.804;2023-07-13T03:31:57;8.70;;;2.08;;
61903;SDS011;47857;52.270;6.804;2023-07-13T03:34:22;7.68;;;2.00;;
61903;SDS011;47857;52.270;6.804;2023-07-13T03:36:49;8.63;;;2.20;;
61903;SDS011;47857;52.270;6.804;2023-07-13T03:39:14;8.80;;;2.33;;
61903;SDS011;47857;52.270;6.804;2023-07-13T03:41:47;9.00;;;1.90;;
61903;SDS011;47857;52.270;6.804;2023-07-13T03:44:13;11.50;;;2.33;;
61903;SDS011;47857;52.270;6.804;2023-07-13T03:46:38;9.88;;;2.15;;
61903;SDS011;47857;52.270;6.804;2023-07-13T03:49:04;7.45;;;2.28;;
61903;SDS011;47857;52.270;6.804;2023-07-13T03:51:31;10.27;;;2.30;;
61903;SDS011;47857;52.270;6.804;2023-07-13T03:53:59;7.25;;;2.42;;
61903;SDS011;47857;52.270;6.804;2023-07-13T03:56:25;10.75;;;2.42;;
61903;SDS011;47857;52.270;6.804;2023-07-13T03:58:50;7.40;;;2.00;;
61903;SDS011;47857;52.270;6.804;2023-07-13T04:01:19;9.48;;;2.15;;
61903;SDS011;47857;52.270;6.804;2023-07-13T04:03:46;6.85;;;2.13;;
61903;SDS011;47857;52.270;6.804;2023-07-13T04:06:20;11.90;;;2.40;;
61903;SDS011;47857;52.270;6.804;2023-07-13T04:08:49;10.65;;;2.88;;
61903;SDS011;47857;52.270;6.804;2023-07-13T04:11:19;22.20;;;10.70;;
61903;SDS011;47857;52.270;6.804;2023-07-13T04:13:46;13.80;;;6.13;;
61903;SDS011;47857;52.270;6.804;2023-07-13T04:16:12;16.50;;;6.13;;
61903;SDS011;47857;52.270;6.804;2023-07-13T04:18:38;16.35;;;6.30;;
61903;SDS011;47857;52.270;6.804;2023-07-13T04:21:04;25.33;;;11.48;;
61903;SDS011;47857;52.270;6.804;2023-07-13T04:23:29;10.63;;;3.15;;
61903;SDS011;47857;52.270;6.804;2023-07-13T04:25:55;16.30;;;4.22;;
61903;SDS011;47857;52.270;6.804;2023-07-13T04:28:21;10.57;;;3.13;;
61903;SDS011;47857;52.270;6.804;2023-07-13T04:30:48;12.40;;;3.10;;
61903;SDS011;47857;52.270;6.804;2023-07-13T04:33:14;8.57;;;2.95;;
61903;SDS011;47857;52.270;6.804;2023-07-13T04:35:39;12.93;;;3.17;;
61903;SDS011;47857;52.270;6.804;2023-07-13T04:38:05;12.80;;;3.15;;
61903;SDS011;47857;52.270;6.804;2023-07-13T04:40:31;9.38;;;3.22;;
61903;SDS011;47857;52.270;6.804;2023-07-13T04:42:57;11.00;;;3.22;;
61903;SDS011;47857;52.270;6.804;2023-07-13T04:45:24;10.75;;;3.08;;
61903;SDS011;47857;52.270;6.804;2023-07-13T04:47:50;9.65;;;3.15;;
61903;SDS011;47857;52.270;6.804;2023-07-13T04:50:15;11.10;;;3.30;;
61903;SDS011;47857;52.270;6.804;2023-07-13T04:52:45;11.13;;;3.00;;
61903;SDS011;47857;52.270;6.804;2023-07-13T04:55:10;11.23;;;3.03;;
61903;SDS011;47857;52.270;6.804;2023-07-13T04:57:36;9.13;;;2.88;;
61903;SDS011;47857;52.270;6.804;2023-07-13T05:00:03;11.65;;;3.42;;
61903;SDS011;47857;52.270;6.804;2023-07-13T05:02:31;11.15;;;3.00;;
61903;SDS011;47857;52.270;6.804;2023-07-13T05:04:57;13.35;;;3.35;;
61903;SDS011;47857;52.270;6.804;2023-07-13T05:07:23;13.77;;;3.10;;
61903;SDS011;47857;52.270;6.804;2023-07-13T05:09:48;11.48;;;2.78;;
61903;SDS011;47857;52.270;6.804;2023-07-13T05:12:14;13.10;;;3.17;;
61903;SDS011;47857;52.270;6.804;2023-07-13T05:14:39;9.50;;;3.03;;
61903;SDS011;47857;52.270;6.804;2023-07-13T05:17:05;8.48;;;2.63;;
61903;SDS011;47857;52.270;6.804;2023-07-13T05:19:30;12.70;;;3.20;;
61903;SDS011;47857;52.270;6.804;2023-07-13T05:21:56;8.30;;;2.92;;
61903;SDS011;47857;52.270;6.804;2023-07-13T05:24:22;12.25;;;3.13;;
61903;SDS011;47857;52.270;6.804;2023-07-13T05:26:47;13.50;;;3.53;;
61903;SDS011;47857;52.270;6.804;2023-07-13T05:29:13;12.75;;;2.92;;
61903;SDS011;47857;52.270;6.804;2023-07-13T05:31:38;13.32;;;3.33;;
61903;SDS011;47857;52.270;6.804;2023-07-13T05:34:04;13.57;;;3.55;;
61903;SDS011;47857;52.270;6.804;2023-07-13T05:36:30;10.48;;;3.50;;
61903;SDS011;47857;52.270;6.804;2023-07-13T05:38:56;12.88;;;3.90;;
61903;SDS011;47857;52.270;6.804;2023-07-13T05:41:21;12.43;;;3.13;;
61903;SDS011;47857;52.270;6.804;2023-07-13T05:43:47;8.90;;;3.25;;
61903;SDS011;47857;52.270;6.804;2023-07-13T05:46:12;13.60;;;3.80;;
61903;SDS011;47857;52.270;6.804;2023-07-13T05:48:38;9.82;;;3.38;;
61903;SDS011;47857;52.270;6.804;2023-07-13T05:51:03;12.70;;;3.95;;
61903;SDS011;47857;52.270;6.804;2023-07-13T05:53:29;18.30;;;4.55;;
61903;SDS011;47857;52.270;6.804;2023-07-13T05:55:55;17.02;;;4.35;;
61903;SDS011;47857;52.270;6.804;2023-07-13T05:58:20;18.30;;;5.00;;
61903;SDS011;47857;52.270;6.804;2023-07-13T06:00:47;16.77;;;4.47;;
61903;SDS011;47857;52.270;6.804;2023-07-13T06:03:12;13.60;;;3.80;;
61903;SDS011;47857;52.270;6.804;2023-07-13T06:05:38;9.90;;;3.83;;
61903;SDS011;47857;52.270;6.804;2023-07-13T06:08:05;16.42;;;4.07;;
61903;SDS011;47857;52.270;6.804;2023-07-13T06:10:33;15.15;;;4.70;;
61903;SDS011;47857;52.270;6.804;2023-07-13T06:13:00;13.27;;;4.20;;
61903;SDS011;47857;52.270;6.804;2023-07-13T06:15:25;15.75;;;4.25;;
61903;SDS011;47857;52.270;6.804;2023-07-13T06:17:51;16.73;;;4.68;;
61903;SDS011;47857;52.270;6.804;2023-07-13T06:20:17;14.23;;;4.75;;
61903;SDS011;47857;52.270;6.804;2023-07-13T06:22:42;16.35;;;4.63;;
61903;SDS011;47857;52.270;6.804;2023-07-13T06:25:08;11.30;;;4.63;;
61903;SDS011;47857;52.270;6.804;2023-07-13T06:27:34;13.32;;;5.00;;
61903;SDS011;47857;52.270;6.804;2023-07-13T06:30:00;15.98;;;4.53;;
61903;SDS011;47857;52.270;6.804;2023-07-13T06:32:25;16.80;;;5.35;;
61903;SDS011;47857;52.270;6.804;2023-07-13T06:34:51;13.70;;;5.20;;
61903;SDS011;47857;52.270;6.804;2023-07-13T06:37:17;12.82;;;4.88;;
61903;SDS011;47857;52.270;6.804;2023-07-13T06:39:43;17.45;;;4.82;;
61903;SDS011;47857;52.270;6.804;2023-07-13T06:42:08;18.35;;;5.30;;
61903;SDS011;47857;52.270;6.804;2023-07-13T06:44:34;15.90;;;5.75;;
61903;SDS011;47857;52.270;6.804;2023-07-13T06:46:59;16.02;;;6.00;;
61903;SDS011;47857;52.270;6.804;2023-07-13T06:49:25;16.27;;;6.07;;
61903;SDS011;47857;52.270;6.804;2023-07-13T06:51:51;16.80;;;6.22;;
61903;SDS011;47857;52.270;6.804;2023-07-13T06:54:16;17.95;;;6.15;;
61903;SDS011;47857;52.270;6.804;2023-07-13T06:56:42;17.40;;;5.60;;
61903;SDS011;47857;52.270;6.804;2023-07-13T06:59:08;15.10;;;5.82;;
61903;SDS011;47857;52.270;6.804;2023-07-13T07:01:33;15.65;;;6.68;;
61903;SDS011;47857;52.270;6.804;2023-07-13T07:03:59;15.57;;;6.28;;
61903;SDS011;47857;52.270;6.804;2023-07-13T07:06:24;15.35;;;6.43;;
61903;SDS011;47857;52.270;6.804;2023-07-13T07:08:50;12.90;;;6.10;;
61903;SDS011;47857;52.270;6.804;2023-07-13T07:11:17;17.00;;;6.72;;
61903;SDS011;47857;52.270;6.804;2023-07-13T07:13:48;15.95;;;6.28;;
61903;SDS011;47857;52.270;6.804;2023-07-13T07:16:14;12.30;;;6.55;;
61903;SDS011;47857;52.270;6.804;2023-07-13T07:18:40;16.77;;;6.82;;
61903;SDS011;47857;52.270;6.804;2023-07-13T07:21:05;17.08;;;7.68;;
61903;SDS011;47857;52.270;6.804;2023-07-13T07:23:31;20.67;;;7.43;;
61903;SDS011;47857;52.270;6.804;2023-07-13T07:25:57;17.75;;;8.00;;
61903;SDS011;47857;52.270;6.804;2023-07-13T07:28:22;13.95;;;6.25;;
61903;SDS011;47857;52.270;6.804;2023-07-13T07:30:48;21.13;;;8.02;;
61903;SDS011;47857;52.270;6.804;2023-07-13T07:33:15;18.65;;;7.63;;
61903;SDS011;47857;52.270;6.804;2023-07-13T07:35:42;17.13;;;7.47;;
61903;SDS011;47857;52.270;6.804;2023-07-13T07:38:08;18.65;;;7.85;;
61903;SDS011;47857;52.270;6.804;2023-07-13T07:40:38;19.02;;;8.02;;
61903;SDS011;47857;52.270;6.804;2023-07-13T07:43:05;18.15;;;8.10;;
61903;SDS011;47857;52.270;6.804;2023-07-13T07:45:31;14.80;;;7.22;;
61903;SDS011;47857;52.270;6.804;2023-07-13T07:47:57;17.30;;;8.20;;
61903;SDS011;47857;52.270;6.804;2023-07-13T07:50:24;18.90;;;8.02;;
61903;SDS011;47857;52.270;6.804;2023-07-13T07:52:50;19.75;;;8.55;;
61903;SDS011;47857;52.270;6.804;2023-07-13T07:55:16;19.52;;;8.40;;
61903;SDS011;47857;52.270;6.804;2023-07-13T07:57:42;16.63;;;8.50;;
61903;SDS011;47857;52.270;6.804;2023-07-13T08:00:07;20.30;;;8.43;;
61903;SDS011;47857;52.270;6.804;2023-07-13T08:02:39;19.63;;;8.50;;
61903;SDS011;47857;52.270;6.804;2023-07-13T08:05:07;22.77;;;9.13;;
61903;SDS011;47857;52.270;6.804;2023-07-13T08:07:33;16.58;;;8.50;;
61903;SDS011;47857;52.270;6.804;2023-07-13T08:09:59;18.30;;;8.90;;
61903;SDS011;47857;52.270;6.804;2023-07-13T08:12:25;16.90;;;9.13;;
61903;SDS011;47857;52.270;6.804;2023-07-13T08:14:50;18.65;;;8.25;;
61903;SDS011;47857;52.270;6.804;2023-07-13T08:17:21;19.60;;;8.82;;
61903;SDS011;47857;52.270;6.804;2023-07-13T08:19:46;21.40;;;9.20;;
61903;SDS011;47857;52.270;6.804;2023-07-13T08:22:12;17.17;;;8.27;;
61903;SDS011;47857;52.270;6.804;2023-07-13T08:24:38;20.50;;;8.30;;
61903;SDS011;47857;52.270;6.804;2023-07-13T08:27:03;15.75;;;8.90;;
61903;SDS011;47857;52.270;6.804;2023-07-13T08:29:29;21.08;;;10.15;;
61903;SDS011;47857;52.270;6.804;2023-07-13T08:32:00;20.25;;;8.93;;
61903;SDS011;47857;52.270;6.804;2023-07-13T08:34:26;16.67;;;8.75;;
61903;SDS011;47857;52.270;6.804;2023-07-13T08:36:51;17.08;;;8.55;;
61903;SDS011;47857;52.270;6.804;2023-07-13T08:39:17;17.13;;;7.82;;
61903;SDS011;47857;52.270;6.804;2023-07-13T08:41:44;21.05;;;9.00;;
61903;SDS011;47857;52.270;6.804;2023-07-13T08:44:16;19.90;;;9.75;;
61903;SDS011;47857;52.270;6.804;2023-07-13T08:46:46;20.05;;;8.32;;
61903;SDS011;47857;52.270;6.804;2023-07-13T08:49:15;19.88;;;8.63;;
61903;SDS011;47857;52.270;6.804;2023-07-13T08:51:43;18.85;;;8.93;;
61903;SDS011;47857;52.270;6.804;2023-07-13T08:54:32;20.00;;;9.15;;
61903;SDS011;47857;52.270;6.804;2023-07-13T08:57:03;21.92;;;9.02;;
61903;SDS011;47857;52.270;6.804;2023-07-13T08:59:35;18.05;;;9.40;;
61903;SDS011;47857;52.270;6.804;2023-07-13T09:10:52;17.65;;;8.48;;
61903;SDS011;47857;52.270;6.804;2023-07-13T09:13:37;19.63;;;8.18;;
61903;SDS011;47857;52.270;6.804;2023-07-13T09:16:08;21.20;;;9.20;;
61903;SDS011;47857;52.270;6.804;2023-07-13T09:18:41;21.55;;;9.25;;
61903;SDS011;47857;52.270;6.804;2023-07-13T09:21:30;18.30;;;9.07;;
61903;SDS011;47857;52.270;6.804;2023-07-13T09:23:58;21.58;;;10.43;;
61903;SDS011;47857;52.270;6.804;2023-07-13T09:26:25;19.88;;;9.35;;
61903;SDS011;47857;52.270;6.804;2023-07-13T09:28:57;13.35;;;8.20;;
61903;SDS011;47857;52.270;6.804;2023-07-13T09:31:33;15.98;;;7.95;;
61903;SDS011;47857;52.270;6.804;2023-07-13T09:34:00;19.88;;;9.90;;
61903;SDS011;47857;52.270;6.804;2023-07-13T09:36:27;18.33;;;8.70;;
61903;SDS011;47857;52.270;6.804;2023-07-13T09:41:31;20.33;;;9.55;;
61903;SDS011;47857;52.270;6.804;2023-07-13T09:44:14;16.23;;;9.48;;
61903;SDS011;47857;52.270;6.804;2023-07-13T09:46:51;23.58;;;10.32;;
61903;SDS011;47857;52.270;6.804;2023-07-13T09:49:18;21.65;;;10.05;;
61903;SDS011;47857;52.270;6.804;2023-07-13T09:51:44;20.00;;;10.25;;
61903;SDS011;47857;52.270;6.804;2023-07-13T09:54:19;21.67;;;9.55;;
61903;SDS011;47857;52.270;6.804;2023-07-13T09:56:45;21.45;;;9.18;;
61903;SDS011;47857;52.270;6.804;2023-07-13T09:59:18;20.00;;;9.98;;
61903;SDS011;47857;52.270;6.804;2023-07-13T10:01:45;22.67;;;10.40;;
61903;SDS011;47857;52.270;6.804;2023-07-13T10:04:14;21.70;;;10.10;;
61903;SDS011;47857;52.270;6.804;2023-07-13T10:06:44;19.58;;;9.65;;
61903;SDS011;47857;52.270;6.804;2023-07-13T10:09:10;19.50;;;9.90;;
61903;SDS011;47857;52.270;6.804;2023-07-13T10:11:40;19.55;;;9.45;;
61903;SDS011;47857;52.270;6.804;2023-07-13T10:14:14;18.77;;;9.15;;
61903;SDS011;47857;52.270;6.804;2023-07-13T10:16:42;21.02;;;8.70;;
61903;SDS011;47857;52.270;6.804;2023-07-13T10:21:58;19.58;;;9.60;;
61903;SDS011;47857;52.270;6.804;2023-07-13T10:24:26;19.77;;;8.60;;
61903;SDS011;47857;52.270;6.804;2023-07-13T10:29:45;17.83;;;8.57;;
61903;SDS011;47857;52.270;6.804;2023-07-13T10:32:27;16.23;;;9.35;;
61903;SDS011;47857;52.270;6.804;2023-07-13T10:34:52;18.35;;;9.48;;
61903;SDS011;47857;52.270;6.804;2023-07-13T10:40:14;17.98;;;8.65;;
61903;SDS011;47857;52.270;6.804;2023-07-13T10:42:44;15.27;;;8.32;;
61903;SDS011;47857;52.270;6.804;2023-07-13T10:45:18;14.05;;;8.23;;
61903;SDS011;47857;52.270;6.804;2023-07-13T10:47:46;17.80;;;8.50;;
61903;SDS011;47857;52.270;6.804;2023-07-13T10:50:24;16.95;;;8.25;;
61903;SDS011;47857;52.270;6.804;2023-07-13T10:52:51;16.20;;;8.20;;
61903;SDS011;47857;52.270;6.804;2023-07-13T10:58:13;18.10;;;8.73;;
61903;SDS011;47857;52.270;6.804;2023-07-13T11:00:46;17.88;;;10.60;;
61903;SDS011;47857;52.270;6.804;2023-07-13T11:03:14;23.48;;;12.43;;
61903;SDS011;47857;52.270;6.804;2023-07-13T11:05:41;17.27;;;9.07;;
61903;SDS011;47857;52.270;6.804;2023-07-13T11:10:47;19.02;;;10.13;;
61903;SDS011;47857;52.270;6.804;2023-07-13T11:16:13;19.80;;;10.23;;
61903;SDS011;47857;52.270;6.804;2023-07-13T11:18:39;18.58;;;11.13;;
61903;SDS011;47857;52.270;6.804;2023-07-13T11:21:15;19.65;;;9.98;;
61903;SDS011;47857;52.270;6.804;2023-07-13T11:23:42;22.63;;;11.43;;
61903;SDS011;47857;52.270;6.804;2023-07-13T11:31:57;15.93;;;8.95;;
61903;SDS011;47857;52.270;6.804;2023-07-13T11:34:26;17.60;;;8.27;;
61903;SDS011;47857;52.270;6.804;2023-07-13T11:36:53;13.35;;;7.25;;
61903;SDS011;47857;52.270;6.804;2023-07-13T11:39:24;11.10;;;5.80;;
61903;SDS011;47857;52.270;6.804;2023-07-13T11:41:59;14.00;;;6.63;;
61903;SDS011;47857;52.270;6.804;2023-07-13T11:44:27;8.57;;;5.18;;
61903;SDS011;47857;52.270;6.804;2023-07-13T11:46:55;9.73;;;4.38;;
61903;SDS011;47857;52.270;6.804;2023-07-13T11:49:25;8.57;;;3.63;;
61903;SDS011;47857;52.270;6.804;2023-07-13T11:51:54;5.97;;;3.25;;
61903;SDS011;47857;52.270;6.804;2023-07-13T11:54:23;6.50;;;3.38;;
61903;SDS011;47857;52.270;6.804;2023-07-13T11:57:01;5.68;;;2.70;;
61903;SDS011;47857;52.270;6.804;2023-07-13T11:59:31;5.78;;;2.20;;
61903;SDS011;47857;52.270;6.804;2023-07-13T12:01:58;5.03;;;2.25;;
61903;SDS011;47857;52.270;6.804;2023-07-13T12:04:25;2.85;;;1.50;;
61903;SDS011;47857;52.270;6.804;2023-07-13T12:07:05;2.22;;;1.35;;
61903;SDS011;47857;52.270;6.804;2023-07-13T12:09:40;3.28;;;1.50;;
61903;SDS011;47857;52.270;6.804;2023-07-13T12:12:13;3.40;;;1.10;;
61903;SDS011;47857;52.270;6.804;2023-07-13T12:17:24;2.63;;;1.40;;
61903;SDS011;47857;52.270;6.804;2023-07-13T12:19:51;3.15;;;1.60;;
61903;SDS011;47857;52.270;6.804;2023-07-13T12:22:18;2.75;;;1.50;;
61903;SDS011;47857;52.270;6.804;2023-07-13T12:24:45;4.10;;;1.58;;
61903;SDS011;47857;52.270;6.804;2023-07-13T12:27:27;4.32;;;1.80;;
61903;SDS011;47857;52.270;6.804;2023-07-13T12:30:01;4.00;;;1.85;;
61903;SDS011;47857;52.270;6.804;2023-07-13T12:32:30;2.83;;;1.80;;
61903;SDS011;47857;52.270;6.804;2023-07-13T12:35:01;3.25;;;1.77;;
61903;SDS011;47857;52.270;6.804;2023-07-13T12:37:37;4.88;;;2.10;;
61903;SDS011;47857;52.270;6.804;2023-07-13T12:40:12;4.03;;;2.50;;
61903;SDS011;47857;52.270;6.804;2023-07-13T12:42:39;5.47;;;2.72;;
61903;SDS011;47857;52.270;6.804;2023-07-13T12:45:15;5.80;;;2.80;;
61903;SDS011;47857;52.270;6.804;2023-07-13T12:47:50;7.72;;;3.50;;
61903;SDS011;47857;52.270;6.804;2023-07-13T12:50:28;7.57;;;5.00;;
61903;SDS011;47857;52.270;6.804;2023-07-13T12:52:56;8.57;;;5.20;;
61903;SDS011;47857;52.270;6.804;2023-07-13T12:55:28;10.50;;;4.90;;
61903;SDS011;47857;52.270;6.804;2023-07-13T12:57:57;11.70;;;4.70;;
61903;SDS011;47857;52.270;6.804;2023-07-13T13:00:30;7.57;;;4.20;;
61903;SDS011;47857;52.270;6.804;2023-07-13T13:03:04;8.30;;;3.65;;
61903;SDS011;47857;52.270;6.804;2023-07-13T13:05:31;5.60;;;4.03;;
61903;SDS011;47857;52.270;6.804;2023-07-13T13:07:58;8.50;;;3.80;;
61903;SDS011;47857;52.270;6.804;2023-07-13T13:10:23;7.53;;;3.13;;
61903;SDS011;47857;52.270;6.804;2023-07-13T13:12:49;6.05;;;2.80;;
61903;SDS011;47857;52.270;6.804;2023-07-13T13:15:15;5.43;;;2.80;;
61903;SDS011;47857;52.270;6.804;2023-07-13T13:17:42;5.70;;;2.63;;
61903;SDS011;47857;52.270;6.804;2023-07-13T13:20:17;5.32;;;2.50;;
61903;SDS011;47857;52.270;6.804;2023-07-13T13:22:44;5.20;;;2.67;;
61903;SDS011;47857;52.270;6.804;2023-07-13T13:25:11;9.38;;;3.50;;
61903;SDS011;47857;52.270;6.804;2023-07-13T13:27:37;5.15;;;2.67;;
61903;SDS011;47857;52.270;6.804;2023-07-13T13:30:09;3.70;;;2.40;;
61903;SDS011;47857;52.270;6.804;2023-07-13T13:32:39;7.03;;;3.00;;
61903;SDS011;47857;52.270;6.804;2023-07-13T13:35:08;5.63;;;2.72;;
61903;SDS011;47857;52.270;6.804;2023-07-13T13:37:38;4.55;;;2.45;;
61903;SDS011;47857;52.270;6.804;2023-07-13T13:40:12;11.30;;;2.92;;
61903;SDS011;47857;52.270;6.804;2023-07-13T13:42:39;4.70;;;2.50;;
61903;SDS011;47857;52.270;6.804;2023-07-13T13:45:05;5.28;;;2.67;;
61903;SDS011;47857;52.270;6.804;2023-07-13T13:47:32;4.70;;;2.45;;
61903;SDS011;47857;52.270;6.804;2023-07-13T13:50:00;7.15;;;2.70;;
61903;SDS011;47857;52.270;6.804;2023-07-13T13:52:25;4.80;;;2.50;;
61903;SDS011;47857;52.270;6.804;2023-07-13T13:54:51;6.07;;;2.90;;
61903;SDS011;47857;52.270;6.804;2023-07-13T13:57:22;5.60;;;2.65;;
61903;SDS011;47857;52.270;6.804;2023-07-13T13:59:51;8.23;;;3.10;;
61903;SDS011;47857;52.270;6.804;2023-07-13T14:02:25;7.50;;;2.95;;
61903;SDS011;47857;52.270;6.804;2023-07-13T14:04:56;6.28;;;2.85;;
61903;SDS011;47857;52.270;6.804;2023-07-13T14:07:24;6.90;;;3.53;;
61903;SDS011;47857;52.270;6.804;2023-07-13T14:09:51;6.63;;;3.63;;
61903;SDS011;47857;52.270;6.804;2023-07-13T14:12:20;8.52;;;4.05;;
61903;SDS011;47857;52.270;6.804;2023-07-13T14:14:46;10.60;;;4.00;;
61903;SDS011;47857;52.270;6.804;2023-07-13T14:17:19;7.72;;;4.25;;
61903;SDS011;47857;52.270;6.804;2023-07-13T14:19:47;9.38;;;4.65;;
61903;SDS011;47857;52.270;6.804;2023-07-13T14:22:16;7.03;;;4.10;;
61903;SDS011;47857;52.270;6.804;2023-07-13T14:24:42;9.20;;;4.78;;
61903;SDS011;47857;52.270;6.804;2023-07-13T14:27:09;9.80;;;5.35;;
61903;SDS011;47857;52.270;6.804;2023-07-13T14:29:36;8.90;;;4.85;;
61903;SDS011;47857;52.270;6.804;2023-07-13T14:32:01;9.88;;;5.13;;
61903;SDS011;47857;52.270;6.804;2023-07-13T14:34:27;8.38;;;4.78;;
61903;SDS011;47857;52.270;6.804;2023-07-13T14:36:54;7.75;;;4.50;;
61903;SDS011;47857;52.270;6.804;2023-07-13T14:39:21;7.38;;;4.78;;
61903;SDS011;47857;52.270;6.804;2023-07-13T14:41:51;8.02;;;4.60;;
61903;SDS011;47857;52.270;6.804;2023-07-13T14:44:20;8.57;;;4.05;;
61903;SDS011;47857;52.270;6.804;2023-07-13T14:46:50;9.13;;;4.03;;
61903;SDS011;47857;52.270;6.804;2023-07-13T14:52:12;6.18;;;3.05;;
61903;SDS011;47857;52.270;6.804;2023-07-13T14:54:38;5.80;;;2.70;;
61903;SDS011;47857;52.270;6.804;2023-07-13T14:57:13;7.47;;;3.10;;
61903;SDS011;47857;52.270;6.804;2023-07-13T14:59:40;8.82;;;3.53;;
61903;SDS011;47857;52.270;6.804;2023-07-13T15:02:22;5.03;;;3.33;;
61903;SDS011;47857;52.270;6.804;2023-07-13T15:04:49;6.05;;;3.53;;
61903;SDS011;47857;52.270;6.804;2023-07-13T15:07:15;6.22;;;3.28;;
61903;SDS011;47857;52.270;6.804;2023-07-13T15:09:43;6.03;;;3.42;;
61903;SDS011;47857;52.270;6.804;2023-07-13T15:12:08;7.35;;;3.92;;
61903;SDS011;47857;52.270;6.804;2023-07-13T15:14:34;7.88;;;3.78;;
61903;SDS011;47857;52.270;6.804;2023-07-13T15:16:59;7.57;;;3.83;;
61903;SDS011;47857;52.270;6.804;2023-07-13T15:19:25;7.88;;;3.80;;
61903;SDS011;47857;52.270;6.804;2023-07-13T15:21:51;4.97;;;3.05;;
61903;SDS011;47857;52.270;6.804;2023-07-13T15:24:17;7.03;;;3.28;;
61903;SDS011;47857;52.270;6.804;2023-07-13T15:26:43;8.55;;;3.70;;